Time;durP1;ratioP1;P1;durP2;ratioP2;P2;SDS_P1;SDS_P2;PMS_P1;PMS_P2;Temp;Humidity;BMP_temperature;BMP_pressure;BME280_temperature;BME280_humidity;BME280_pressure;Samples;Min_cycle;Max_cycle;Signal;HPM_P1;HPM_P2
2022/02/08 00:01:37;;;;;;;;;;;;;;;14.97;50.37;100180.59;145002;918;1018;-86
2022/02/08 00:04:04;;;;;;;;;;;;;;;14.90;50.68;100181.44;145002;919;1017;-88
2022/02/08 00:06:44;;;;;;;;;;;;;;;14.94;50.56;100186.69;145002;923;1018;-90
2022/02/08 00:09:15;;;;;;;;;;;;;;;14.71;51.37;100173.53;145002;918;1018;-88
2022/02/08 00:11:43;;;;;;;;;;;;;;;13.54;52.94;100146.69;145002;922;1022;-86
2022/02/08 00:14:11;;;;;;;;;;;;;;;13.89;53.56;100169.56;145002;919;1020;-88
2022/02/08 00:16:38;;;;;;;;;;;;;;;13.65;53.76;100165.91;145002;922;1018;-89
2022/02/08 00:19:07;;;;;;;;;;;;;;;13.60;53.41;100155.41;145002;918;1018;-83
2022/02/08 00:21:38;;;;;;;;;;;;;;;13.28;53.30;100165.50;145002;923;1020;-89
2022/02/08 00:24:07;;;;;;;;;;;;;;;13.64;52.54;100164.12;145002;918;1018;-90
2022/02/08 00:26:36;;;;;;;;;;;;;;;13.81;52.40;100179.03;145002;922;1025;-85
2022/02/08 00:29:11;;;;;;;;;;;;;;;13.59;52.40;100187.56;145002;919;1019;-82
2022/02/08 00:31:45;;;;;;;;;;;;;;;13.70;52.09;100190.28;145002;923;1018;-85
2022/02/08 00:34:15;;;;;;;;;;;;;;;13.50;51.92;100203.13;145002;919;1018;-87
2022/02/08 00:37:03;;;;;;;;;;;;;;;13.17;50.04;100187.97;145002;923;1018;-86
2022/02/08 00:39:56;;;;;;;;;;;;;;;;;;;;;
2022/02/08 00:42:30;;;;;;;;;;;;;;;11.75;49.06;100189.50;145002;925;1017;-88
2022/02/08 00:45:15;;;;;;;;;;;;;;;11.65;48.14;100205.81;145002;921;1017;-89
2022/02/08 00:47:51;;;;;;;;;;;;;;;11.71;49.77;100224.13;145002;925;1018;-87
2022/02/08 00:50:29;;;;;;;;;;;;;;;11.25;48.49;100238.88;145002;920;1018;-86
2022/02/08 00:53:00;;;;;;;;;;;;;;;11.20;48.83;100238.78;145002;924;1018;-88
2022/02/08 00:55:40;;;;;;;;;;;;;;;10.72;48.96;100221.34;145002;920;1017;-89
2022/02/08 00:58:09;;;;;;;;;;;;;;;10.39;49.06;100243.16;145002;924;1018;-80
2022/02/08 01:00:38;;;;;;;;;;;;;;;9.80;50.16;100303.91;145002;920;1018;-90
2022/02/08 01:03:21;;;;;;;;;;;;;;;9.52;52.76;100327.34;145002;925;1015;-88
2022/02/08 01:06:11;;;;;;;;;;;;;;;9.34;54.21;100346.72;145002;920;1017;-87
2022/02/08 01:08:45;;;;;;;;;;;;;;;9.03;56.64;100361.34;145002;924;1016;-86
2022/02/08 01:11:21;;;;;;;;;;;;;;;8.98;57.86;100360.31;145002;920;1015;-90
2022/02/08 01:13:55;;;;;;;;;;;;;;;8.80;59.48;100360.66;145002;925;1017;-82
2022/02/08 01:16:27;;;;;;;;;;;;;;;8.47;60.29;100347.50;145002;920;1015;-88
2022/02/08 01:18:58;;;;;;;;;;;;;;;8.32;62.44;100338.41;145001;924;2000;-87
2022/02/08 01:21:31;;;;;;;;;;;;;;;8.33;62.53;100324.63;145002;921;1020;-86
2022/02/08 01:24:07;;;;;;;;;;;;;;;8.29;63.11;100320.19;145002;924;1015;-80
2022/02/08 01:26:47;;;;;;;;;;;;;;;8.03;63.33;100329.66;145002;920;1017;-85
2022/02/08 01:29:23;;;;;;;;;;;;;;;8.02;63.98;100333.09;145002;925;1017;-89
2022/02/08 01:31:52;;;;;;;;;;;;;;;7.99;64.30;100346.78;145002;920;1015;-87
2022/02/08 01:34:43;;;;;;;;;;;;;;;8.04;64.81;100359.84;145002;924;1016;-85
2022/02/08 01:46:25;;;;;;;;;;;;;;;7.44;68.03;100414.56;145002;919;1018;-86
2022/02/08 01:49:00;;;;;;;;;;;;;;;7.43;67.77;100417.97;145002;920;1018;-87
2022/02/08 01:51:26;;;;;;;;;;;;;;;7.41;68.35;100406.69;145002;924;1019;-88
2022/02/08 01:54:00;;;;;;;;;;;;;;;7.25;68.05;100407.81;145002;920;1018;-89
2022/02/08 01:56:30;;;;;;;;;;;;;;;7.11;68.62;100402.16;145002;924;1018;-88
2022/02/08 01:59:04;;;;;;;;;;;;;;;7.39;68.37;100408.34;145002;921;1017;-87
2022/02/08 02:01:30;;;;;;;;;;;;;;;7.74;67.18;100414.81;145002;923;1017;-89
2022/02/08 02:04:02;;;;;;;;;;;;;;;7.41;67.56;100422.19;145002;920;1019;-80
2022/02/08 02:06:31;;;;;;;;;;;;;;;7.85;65.28;100428.13;145002;925;1018;-87
2022/02/08 02:08:58;;;;;;;;;;;;;;;7.38;66.78;100429.81;145002;920;1017;-89
2022/02/08 02:11:25;;;;;;;;;;;;;;;7.40;66.99;100428.19;145002;925;1022;-86
2022/02/08 02:13:51;;;;;;;;;;;;;;;7.56;66.79;100432.22;145002;920;1018;-89
2022/02/08 02:16:28;;;;;;;;;;;;;;;7.31;67.48;100438.16;145002;923;1018;-88
2022/02/08 02:18:56;;;;;;;;;;;;;;;7.47;66.16;100434.47;145002;919;1019;-88
2022/02/08 02:21:30;;;;;;;;;;;;;;;7.26;68.71;100456.06;145002;924;1017;-81
2022/02/08 02:24:00;;;;;;;;;;;;;;;7.24;67.95;100450.84;145002;919;1017;-87
2022/02/08 02:26:31;;;;;;;;;;;;;;;7.21;68.84;100467.91;145002;925;1019;-86
2022/02/08 02:29:08;;;;;;;;;;;;;;;7.16;68.54;100469.41;145002;920;1019;-82
2022/02/08 02:31:40;;;;;;;;;;;;;;;7.26;68.85;100476.72;145002;924;1017;-86
2022/02/08 02:34:10;;;;;;;;;;;;;;;6.98;68.18;100477.31;145002;920;1017;-87
2022/02/08 02:36:42;;;;;;;;;;;;;;;6.92;67.90;100492.53;145002;923;1018;-82
2022/02/08 02:39:12;;;;;;;;;;;;;;;7.08;67.66;100487.19;145002;920;1019;-86
2022/02/08 02:41:40;;;;;;;;;;;;;;;7.10;67.29;100467.47;145002;924;1018;-88
2022/02/08 02:44:08;;;;;;;;;;;;;;;7.28;66.56;100461.28;145002;921;1019;-86
2022/02/08 02:46:35;;;;;;;;;;;;;;;6.82;66.08;100458.63;145002;924;1020;-87
2022/02/08 02:49:01;;;;;;;;;;;;;;;6.78;65.38;100451.59;145002;920;1019;-86
2022/02/08 02:51:27;;;;;;;;;;;;;;;6.68;65.66;100454.59;145001;924;1998;-88
2022/02/08 02:53:53;;;;;;;;;;;;;;;6.79;65.72;100460.19;145002;922;1020;-88
2022/02/08 02:56:19;;;;;;;;;;;;;;;6.69;62.95;100438.31;145002;922;1016;-87
2022/02/08 02:58:57;;;;;;;;;;;;;;;6.76;63.68;100455.81;145002;923;1017;-88
2022/02/08 03:01:38;;;;;;;;;;;;;;;6.85;61.71;100479.38;145002;926;1016;-86
2022/02/08 03:04:49;;;;;;;;;;;;;;;6.94;61.00;100493.50;145002;914;1016;-86
2022/02/08 03:19:15;;;;;;;;;;;;;;;;;;;;;
2022/02/08 03:21:56;;;;;;;;;;;;;;;7.58;60.05;100578.69;145002;921;1017;-81
2022/02/08 03:24:33;;;;;;;;;;;;;;;7.73;60.56;100587.88;145001;924;2002;-84
2022/02/08 03:27:19;;;;;;;;;;;;;;;;;;;;;
2022/02/08 03:29:59;;;;;;;;;;;;;;;7.73;65.04;100585.28;145002;924;1018;-83
2022/02/08 03:32:42;;;;;;;;;;;;;;;7.53;67.09;100593.13;145002;921;1017;-80
2022/02/08 03:35:32;;;;;;;;;;;;;;;7.78;66.05;100587.25;145002;925;1018;-81
2022/02/08 03:38:13;;;;;;;;;;;;;;;7.92;64.27;100600.72;145002;919;1015;-83
2022/02/08 03:40:52;;;;;;;;;;;;;;;8.14;62.85;100602.41;145002;924;1014;-83
2022/02/08 03:43:29;;;;;;;;;;;;;;;8.24;62.95;100611.38;145002;920;1016;-82
2022/02/08 03:46:02;;;;;;;;;;;;;;;7.90;65.20;100616.97;145002;924;1016;-84
2022/02/08 03:48:35;;;;;;;;;;;;;;;8.35;62.20;100606.59;145002;920;1015;-86
2022/02/08 03:51:13;;;;;;;;;;;;;;;8.54;61.40;100610.75;145001;924;2000;-86
2022/02/08 03:54:02;;;;;;;;;;;;;;;9.00;59.90;100606.34;145002;919;1017;-86
2022/02/08 03:56:30;;;;;;;;;;;;;;;8.90;62.25;100625.84;145002;924;1015;-86
2022/02/08 03:59:00;;;;;;;;;;;;;;;8.49;62.38;100622.66;145002;919;1016;-87
2022/02/08 04:07:37;;;;;;;;;;;;;;;7.78;64.89;100649.25;145002;919;1016;-87
2022/02/08 04:10:05;;;;;;;;;;;;;;;7.97;64.41;100650.87;145002;920;1016;-87
2022/02/08 04:13:07;;;;;;;;;;;;;;;7.81;65.82;100656.28;145002;924;1017;-89
2022/02/08 04:15:55;;;;;;;;;;;;;;;8.17;62.72;100649.03;145002;919;1016;-89
2022/02/08 04:32:20;;;;;;;;;;;;;;;7.44;66.17;100658.25;145002;914;1019;-86
2022/02/08 04:35:06;;;;;;;;;;;;;;;7.32;68.01;100664.56;145001;922;1998;-88
2022/02/08 04:40:48;;;;;;;;;;;;;;;7.48;67.12;100674.75;145002;920;1018;-89
2022/02/08 04:43:29;;;;;;;;;;;;;;;7.55;66.17;100666.41;145002;920;1017;-88
2022/02/08 04:46:08;;;;;;;;;;;;;;;7.67;65.16;100666.03;145002;924;1016;-85
2022/02/08 04:51:32;;;;;;;;;;;;;;;7.66;65.50;100659.09;145002;919;1020;-88
2022/02/08 05:34:14;;;;;;;;;;;;;;;7.54;61.02;100718.91;145002;919;1017;-88
2022/02/08 05:46:52;;;;;;;;;;;;;;;8.20;55.30;100743.09;145002;924;1016;-87
2022/02/08 05:49:39;;;;;;;;;;;;;;;7.98;50.38;100732.75;145002;921;1017;-89
2022/02/08 05:52:32;;;;;;;;;;;;;;;7.78;47.01;100739.72;145002;924;1017;-86
2022/02/08 05:54:55;;;;;;;;;;;;;;;7.69;46.51;100739.31;145001;916;2002;-86
2022/02/08 05:57:22;;;;;;;;;;;;;;;7.69;46.83;100764.28;145002;927;1021;-86
2022/02/08 05:59:49;;;;;;;;;;;;;;;7.88;47.11;100764.22;145002;922;1017;-87
2022/02/08 06:02:15;;;;;;;;;;;;;;;8.14;47.43;100785.09;145002;926;1020;-86
2022/02/08 06:04:43;;;;;;;;;;;;;;;8.07;47.89;100796.91;145002;919;1020;-86
2022/02/08 06:07:13;;;;;;;;;;;;;;;7.86;46.04;100796.00;145002;926;1020;-87
2022/02/08 06:09:38;;;;;;;;;;;;;;;8.06;46.67;100805.47;145002;922;1016;-86
2022/02/08 06:12:06;;;;;;;;;;;;;;;8.14;49.60;100821.28;145002;923;1021;-80
2022/02/08 06:14:35;;;;;;;;;;;;;;;7.98;51.72;100818.06;145002;922;1016;-83
2022/02/08 06:17:02;;;;;;;;;;;;;;;8.10;52.77;100827.19;145002;926;1016;-85
2022/02/08 06:19:28;;;;;;;;;;;;;;;7.99;52.45;100825.00;145002;923;1020;-80
2022/02/08 06:21:54;;;;;;;;;;;;;;;8.21;51.98;100840.53;145002;922;1020;-85
2022/02/08 06:24:20;;;;;;;;;;;;;;;7.90;50.01;100839.25;145002;922;1021;-85
2022/02/08 06:26:46;;;;;;;;;;;;;;;8.05;50.14;100845.09;145002;923;1017;-84
2022/02/08 06:29:15;;;;;;;;;;;;;;;7.82;50.72;100850.13;145002;922;1021;-85
2022/02/08 06:31:42;;;;;;;;;;;;;;;7.89;52.13;100855.56;145002;926;1016;-85
2022/02/08 06:34:18;;;;;;;;;;;;;;;8.19;51.92;100863.75;145002;923;1018;-85
2022/02/08 06:36:45;;;;;;;;;;;;;;;8.10;46.76;100853.03;145002;925;1018;-84
2022/02/08 06:39:12;;;;;;;;;;;;;;;8.11;48.37;100870.28;145002;922;1020;-85
2022/02/08 06:41:38;;;;;;;;;;;;;;;8.08;43.63;100865.00;145002;926;1021;-87
2022/02/08 06:44:05;;;;;;;;;;;;;;;7.89;43.58;100863.31;145002;921;1017;-85
2022/02/08 06:46:39;;;;;;;;;;;;;;;8.03;43.51;100874.25;145002;926;1019;-85
2022/02/08 06:49:11;;;;;;;;;;;;;;;8.28;44.88;100884.81;145002;922;1017;-84
2022/02/08 06:51:45;;;;;;;;;;;;;;;8.07;42.03;100891.69;145002;912;1017;-85
2022/02/08 06:54:15;;;;;;;;;;;;;;;8.08;41.92;100891.75;145002;922;1016;-87
2022/02/08 06:56:45;;;;;;;;;;;;;;;8.12;42.36;100898.81;145002;926;1017;-86
2022/02/08 06:59:14;;;;;;;;;;;;;;;8.12;42.17;100914.31;145002;922;1016;-87
2022/02/08 07:01:45;;;;;;;;;;;;;;;8.16;42.55;100915.31;145002;926;1015;-86
2022/02/08 07:04:15;;;;;;;;;;;;;;;8.27;42.63;100910.63;145001;922;1992;-86
2022/02/08 07:06:52;;;;;;;;;;;;;;;8.30;41.63;100919.41;145002;926;1016;-82
2022/02/08 07:09:25;;;;;;;;;;;;;;;8.26;41.96;100917.50;145002;922;1015;-86
2022/02/08 07:11:56;;;;;;;;;;;;;;;8.29;41.90;100920.22;145002;927;1017;-85
2022/02/08 07:14:28;;;;;;;;;;;;;;;8.45;43.02;100928.66;145002;923;1017;-84
2022/02/08 07:16:57;;;;;;;;;;;;;;;8.49;41.70;100934.00;145002;927;1020;-84
2022/02/08 07:19:26;;;;;;;;;;;;;;;8.38;42.34;100931.78;145002;922;1018;-87
2022/02/08 07:21:53;;;;;;;;;;;;;;;8.42;41.96;100939.72;145002;926;1017;-84
2022/02/08 07:24:20;;;;;;;;;;;;;;;8.45;41.75;100931.25;145002;935;1016;-86
2022/02/08 07:26:47;;;;;;;;;;;;;;;8.35;43.09;100925.66;145002;927;1018;-86
2022/02/08 07:29:14;;;;;;;;;;;;;;;8.32;42.36;100940.16;145002;922;1017;-84
2022/02/08 07:31:50;;;;;;;;;;;;;;;7.97;42.78;100960.22;145002;926;1016;-86
2022/02/08 07:34:21;;;;;;;;;;;;;;;8.09;44.51;100939.16;145002;923;1020;-87
2022/02/08 07:37:03;;;;;;;;;;;;;;;7.93;45.50;100947.97;145002;926;1017;-84
2022/02/08 07:39:43;;;;;;;;;;;;;;;8.05;45.86;100956.25;145002;922;1019;-85
2022/02/08 07:42:09;;;;;;;;;;;;;;;7.98;45.28;100961.97;145002;927;1017;-87
2022/02/08 07:44:36;;;;;;;;;;;;;;;7.92;45.33;100951.34;145002;918;1017;-85
2022/02/08 07:47:02;;;;;;;;;;;;;;;8.02;45.12;100961.28;145002;926;1017;-85
2022/02/08 07:49:30;;;;;;;;;;;;;;;7.89;45.97;100961.56;145002;922;1020;-83
2022/02/08 07:51:56;;;;;;;;;;;;;;;7.79;45.65;100958.59;145002;926;1017;-85
2022/02/08 07:54:22;;;;;;;;;;;;;;;7.78;44.93;100963.69;145002;918;1021;-86
2022/02/08 07:56:49;;;;;;;;;;;;;;;7.75;45.42;100985.09;145002;926;1017;-86
2022/02/08 07:59:15;;;;;;;;;;;;;;;7.72;44.76;100963.41;145002;922;1017;-85
2022/02/08 08:01:41;;;;;;;;;;;;;;;7.69;45.14;100968.44;145002;926;1021;-87
2022/02/08 08:04:07;;;;;;;;;;;;;;;7.73;44.18;100959.97;145002;918;1017;-85
2022/02/08 08:06:33;;;;;;;;;;;;;;;7.79;44.36;100980.94;145001;926;2000;-87
2022/02/08 08:08:59;;;;;;;;;;;;;;;7.61;43.19;100975.81;145002;922;1021;-84
2022/02/08 08:11:27;;;;;;;;;;;;;;;7.70;43.31;100986.59;145002;926;1020;-86
2022/02/08 08:14:02;;;;;;;;;;;;;;;7.74;43.72;100992.78;145002;922;1017;-85
2022/02/08 08:16:46;;;;;;;;;;;;;;;7.78;44.54;100984.34;145002;926;1020;-85
2022/02/08 08:22:10;;;;;;;;;;;;;;;7.77;43.87;100988.63;145002;917;1018;-85
2022/02/08 08:24:36;;;;;;;;;;;;;;;7.61;43.89;100997.38;145001;918;1998;-84
2022/02/08 08:27:05;;;;;;;;;;;;;;;7.49;43.97;100998.50;145002;924;1017;-88
2022/02/08 08:29:32;;;;;;;;;;;;;;;7.41;45.00;101006.78;145002;920;1017;-85
2022/02/08 08:32:04;;;;;;;;;;;;;;;7.39;45.74;101004.94;145002;924;1017;-85
2022/02/08 08:34:35;;;;;;;;;;;;;;;7.48;45.99;101015.72;145002;920;1017;-86
2022/02/08 08:37:02;;;;;;;;;;;;;;;7.42;46.86;101018.00;145002;924;1020;-86
2022/02/08 08:39:39;;;;;;;;;;;;;;;7.26;48.26;101026.72;145002;920;1018;-86
2022/02/08 08:42:34;;;;;;;;;;;;;;;7.27;48.27;101036.25;145002;924;1017;-85
2022/02/08 08:48:27;;;;;;;;;;;;;;;7.45;49.10;101038.81;145002;919;1020;-86
2022/02/08 08:50:54;;;;;;;;;;;;;;;7.56;48.72;101050.53;145002;915;1021;-87
2022/02/08 08:53:21;;;;;;;;;;;;;;;7.51;49.00;101054.59;145002;924;1017;-85
2022/02/08 08:55:47;;;;;;;;;;;;;;;7.41;49.15;101054.97;145002;920;1017;-85
2022/02/08 08:58:13;;;;;;;;;;;;;;;7.48;49.27;101071.63;145002;924;1019;-85
2022/02/08 09:00:39;;;;;;;;;;;;;;;7.32;49.93;101070.91;145002;920;1016;-85
2022/02/08 09:03:05;;;;;;;;;;;;;;;7.25;49.69;101085.25;145002;920;1021;-85
2022/02/08 09:05:31;;;;;;;;;;;;;;;7.12;50.09;101089.72;145001;915;2000;-85
2022/02/08 09:07:57;;;;;;;;;;;;;;;7.26;50.44;101080.94;145002;924;1016;-85
2022/02/08 09:10:29;;;;;;;;;;;;;;;7.30;50.52;101076.81;145002;921;1020;-83
2022/02/08 09:13:19;;;;;;;;;;;;;;;7.39;51.10;101077.25;145002;923;1020;-85
2022/02/08 09:21:27;;;;;;;;;;;;;;;7.10;52.13;101086.19;145002;915;1018;-85
2022/02/08 09:29:42;;;;;;;;;;;;;;;6.83;55.03;101131.31;145002;920;1021;-84
2022/02/08 09:32:20;;;;;;;;;;;;;;;6.70;57.07;101132.37;145002;920;1019;-84
2022/02/08 09:34:47;;;;;;;;;;;;;;;6.48;60.45;101153.56;145002;923;1019;-85
2022/02/08 09:37:14;;;;;;;;;;;;;;;6.20;64.14;101163.19;145002;920;1018;-85
2022/02/08 09:39:41;;;;;;;;;;;;;;;6.06;65.21;101168.50;145002;924;1019;-84
2022/02/08 09:42:07;;;;;;;;;;;;;;;5.82;66.57;101179.19;145002;920;1019;-88
2022/02/08 09:44:34;;;;;;;;;;;;;;;5.85;68.10;101190.44;145002;924;1021;-86
2022/02/08 09:47:02;;;;;;;;;;;;;;;5.65;69.99;101190.22;145001;921;1998;-85
2022/02/08 09:49:28;;;;;;;;;;;;;;;5.69;70.22;101199.00;145002;926;1018;-85
2022/02/08 09:51:55;;;;;;;;;;;;;;;5.61;70.82;101201.12;145002;922;1019;-83
2022/02/08 09:54:22;;;;;;;;;;;;;;;5.53;70.96;101220.41;145002;926;1019;-83
2022/02/08 09:56:48;;;;;;;;;;;;;;;5.66;71.50;101217.72;145002;922;1018;-84
2022/02/08 09:59:14;;;;;;;;;;;;;;;5.77;68.88;101229.56;145002;925;1016;-86
2022/02/08 10:01:50;;;;;;;;;;;;;;;5.75;70.87;101223.41;145002;918;1019;-85
2022/02/08 10:04:17;;;;;;;;;;;;;;;5.68;70.59;101248.72;145001;925;2000;-85
2022/02/08 10:06:43;;;;;;;;;;;;;;;5.66;71.11;101237.47;145002;922;1020;-85
2022/02/08 10:09:09;;;;;;;;;;;;;;;5.63;71.86;101225.28;145002;926;1022;-85
2022/02/08 10:14:26;;;;;;;;;;;;;;;5.80;70.05;101245.16;145003;884;1019;-86
2022/02/08 10:22:48;;;;;;;;;;;;;;;5.78;70.84;101251.06;145003;916;1021;-83
2022/02/08 10:25:21;;;;;;;;;;;;;;;5.59;73.40;101254.25;145003;926;1020;-86
2022/02/08 10:28:07;;;;;;;;;;;;;;;5.76;70.68;101250.97;145003;922;1019;-84
2022/02/08 10:38:57;;;;;;;;;;;;;;;5.65;72.12;101257.19;145003;914;1023;-85
2022/02/08 10:41:23;;;;;;;;;;;;;;;5.73;71.41;101270.53;145003;925;1017;-84
2022/02/08 10:43:56;;;;;;;;;;;;;;;5.55;71.33;101257.44;145003;920;1016;-86
2022/02/08 10:46:23;;;;;;;;;;;;;;;5.70;71.01;101267.75;145002;924;1021;-84
2022/02/08 10:49:04;;;;;;;;;;;;;;;5.99;71.08;101279.78;145002;920;1017;-85
2022/02/08 10:51:34;;;;;;;;;;;;;;;5.85;71.92;101270.31;145002;923;1022;-83
2022/02/08 10:54:08;;;;;;;;;;;;;;;6.01;71.98;101277.28;145002;920;1019;-84
2022/02/08 10:56:37;;;;;;;;;;;;;;;6.10;70.39;101276.12;145002;924;1017;-85
2022/02/08 10:59:16;;;;;;;;;;;;;;;5.95;70.40;101288.06;145002;920;1018;-84
2022/02/08 11:01:58;;;;;;;;;;;;;;;5.53;71.76;101295.09;145002;924;1020;-85
2022/02/08 11:04:47;;;;;;;;;;;;;;;5.49;72.14;101293.12;145002;919;1020;-86
2022/02/08 11:07:28;;;;;;;;;;;;;;;5.52;72.57;101296.78;145002;924;1017;-84
2022/02/08 11:12:57;;;;;;;;;;;;;;;5.17;73.30;101311.00;145002;920;1021;-84
2022/02/08 11:18:46;;;;;;;;;;;;;;;5.19;73.40;101323.97;145002;919;1021;-85
2022/02/08 11:21:28;;;;;;;;;;;;;;;5.13;74.08;101326.16;145002;920;1020;-84
2022/02/08 11:24:03;;;;;;;;;;;;;;;5.24;74.60;101330.28;145002;924;1020;-84
2022/02/08 11:26:43;;;;;;;;;;;;;;;5.15;73.75;101334.84;145002;919;1017;-85
2022/02/08 11:29:39;;;;;;;;;;;;;;;5.35;73.22;101336.09;145002;924;1017;-84
2022/02/08 11:32:25;;;;;;;;;;;;;;;5.23;72.80;101339.69;145002;920;1018;-85
2022/02/08 11:41:56;;;;;;;;;;;;;;;5.41;72.22;101337.34;145002;919;1018;-82
2022/02/08 11:46:26;;;;;;;;;;;;;;;5.64;73.27;101350.72;145002;920;1019;-83
2022/02/08 11:58:13;;;;;;;;;;;;;;;5.79;72.43;101371.31;145002;919;1022;-81
2022/02/08 12:00:38;;;;;;;;;;;;;;;5.40;72.61;101374.19;145002;916;1021;-80
2022/02/08 12:08:58;;;;;;;;;;;;;;;5.50;73.25;101388.50;145002;920;1020;-84
2022/02/08 12:12:09;;;;;;;;;;;;;;;5.29;72.73;101393.22;145002;919;1018;-84
2022/02/08 12:34:26;;;;;;;;;;;;;;;5.59;72.26;101412.25;145002;915;1019;-85
2022/02/08 12:52:13;;;;;;;;;;;;;;;5.93;69.10;101414.31;145002;915;1020;-84
2022/02/08 12:54:28;;;;;;;;;;;;;;;6.02;69.85;101413.09;145002;920;1019;-85
2022/02/08 12:57:29;;;;;;;;;;;;;;;6.29;70.22;101416.41;145002;920;1019;-83
2022/02/08 13:00:10;;;;;;;;;;;;;;;6.61;67.30;101407.03;145002;924;1019;-85
2022/02/08 13:02:54;;;;;;;;;;;;;;;6.43;67.21;101414.62;145002;920;1020;-83
2022/02/08 14:15:49;;;;;;;;;;;;;;;8.52;56.56;101469.78;145002;916;1016;-86
2022/02/08 14:18:43;;;;;;;;;;;;;;;8.78;57.97;101469.28;145002;919;1022;-85
2022/02/08 14:21:55;;;;;;;;;;;;;;;9.00;57.82;101473.81;145002;920;1017;-86
2022/02/08 14:25:04;;;;;;;;;;;;;;;9.21;57.28;101480.03;145001;919;2002;-85
2022/02/08 14:30:30;;;;;;;;;;;;;;;9.04;57.32;101476.63;145002;919;1020;-86
2022/02/08 14:33:09;;;;;;;;;;;;;;;9.02;56.47;101478.28;145002;918;1020;-87
2022/02/08 15:08:56;;;;;;;;;;;;;;;8.91;56.14;101536.44;145002;919;1022;-85
2022/02/08 15:11:29;;;;;;;;;;;;;;;9.05;56.04;101534.50;145002;918;1018;-82
2022/02/08 15:13:58;;;;;;;;;;;;;;;9.12;55.90;101536.59;145002;923;1021;-87
2022/02/08 15:16:28;;;;;;;;;;;;;;;9.19;55.64;101541.22;145002;919;1019;-86
2022/02/08 15:18:55;;;;;;;;;;;;;;;9.22;55.58;101553.47;145002;922;1022;-86
2022/02/08 15:21:27;;;;;;;;;;;;;;;9.26;55.39;101550.22;145002;919;1019;-84
2022/02/08 15:23:53;;;;;;;;;;;;;;;9.22;55.52;101548.28;145002;923;1019;-85
2022/02/08 15:26:19;;;;;;;;;;;;;;;9.26;55.39;101552.81;145002;918;1022;-85
2022/02/08 15:28:48;;;;;;;;;;;;;;;9.16;54.60;101555.75;145002;922;1018;-86
2022/02/08 15:31:14;;;;;;;;;;;;;;;9.00;53.70;101551.50;145002;919;1020;-86
2022/02/08 15:33:41;;;;;;;;;;;;;;;8.83;52.47;101550.69;145002;922;1023;-86
2022/02/08 15:36:08;;;;;;;;;;;;;;;8.76;54.04;101558.94;145002;918;1021;-84
2022/02/08 15:38:37;;;;;;;;;;;;;;;8.76;55.33;101566.72;145002;923;1022;-85
2022/02/08 15:41:03;;;;;;;;;;;;;;;8.82;53.32;101559.25;145002;918;1018;-86
2022/02/08 15:43:29;;;;;;;;;;;;;;;8.87;54.63;101575.91;145002;922;1018;-85
2022/02/08 15:46:17;;;;;;;;;;;;;;;8.56;51.46;101576.03;145002;919;1024;-86
2022/02/08 15:48:45;;;;;;;;;;;;;;;8.70;54.15;101582.81;145002;923;1018;-85
2022/02/08 15:51:24;;;;;;;;;;;;;;;8.80;54.85;101594.56;145002;918;1019;-85
2022/02/08 15:54:02;;;;;;;;;;;;;;;8.57;52.08;101581.28;145002;924;1018;-85
2022/02/08 15:56:53;;;;;;;;;;;;;;;8.30;50.06;101586.81;145002;918;1018;-84
2022/02/08 16:07:41;;;;;;;;;;;;;;;8.04;49.88;101610.38;145002;919;1019;-86
2022/02/08 16:10:15;;;;;;;;;;;;;;;7.93;48.48;101605.50;145002;927;1019;-86
2022/02/08 16:12:51;;;;;;;;;;;;;;;7.93;46.63;101620.13;145002;923;1017;-83
2022/02/08 16:15:27;;;;;;;;;;;;;;;8.05;47.35;101620.81;145002;927;1019;-84
2022/02/08 16:18:03;;;;;;;;;;;;;;;8.11;47.57;101618.56;145002;922;1021;-86
2022/02/08 16:23:59;;;;;;;;;;;;;;;7.80;48.28;101626.31;145002;914;1020;-85
2022/02/08 16:46:45;;;;;;;;;;;;;;;7.62;44.43;101675.28;145002;914;1019;-84
2022/02/08 16:54:55;;;;;;;;;;;;;;;7.55;43.25;101668.84;145002;922;1016;-86
2022/02/08 17:00:09;;;;;;;;;;;;;;;7.53;43.03;101685.97;145002;919;1020;-83
2022/02/08 17:02:39;;;;;;;;;;;;;;;7.67;43.89;101688.44;145002;919;1022;-82
2022/02/08 17:05:05;;;;;;;;;;;;;;;7.75;44.21;101692.38;145002;923;1018;-84
2022/02/08 17:07:38;;;;;;;;;;;;;;;7.58;42.42;101697.47;145002;919;1019;-85
2022/02/08 17:10:07;;;;;;;;;;;;;;;7.66;43.80;101718.56;145002;923;1018;-85
2022/02/08 17:12:41;;;;;;;;;;;;;;;7.69;44.06;101723.94;145002;919;1020;-85
2022/02/08 17:35:13;;;;;;;;;;;;;;;7.73;43.87;101749.16;145002;919;1017;-84
2022/02/08 17:48:35;;;;;;;;;;;;;;;7.54;43.26;101757.53;145002;918;1019;-85
2022/02/08 17:51:04;;;;;;;;;;;;;;;7.47;42.72;101763.13;145002;919;1022;-83
2022/02/08 17:53:30;;;;;;;;;;;;;;;7.55;42.52;101761.88;145002;922;1019;-84
2022/02/08 17:55:58;;;;;;;;;;;;;;;7.53;42.36;101771.25;145002;918;1023;-85
2022/02/08 17:58:25;;;;;;;;;;;;;;;7.52;41.75;101769.44;145002;923;1020;-87
2022/02/08 18:00:54;;;;;;;;;;;;;;;7.60;42.67;101788.91;145002;919;1019;-85
2022/02/08 18:03:20;;;;;;;;;;;;;;;7.60;41.99;101781.16;145002;922;1023;-85
2022/02/08 18:05:46;;;;;;;;;;;;;;;7.53;41.55;101784.16;145002;915;1019;-82
2022/02/08 18:08:15;;;;;;;;;;;;;;;7.57;42.00;101790.41;145002;922;1019;-84
2022/02/08 18:10:44;;;;;;;;;;;;;;;7.59;42.03;101781.94;145002;919;1020;-83
2022/02/08 18:13:14;;;;;;;;;;;;;;;7.60;41.66;101791.50;145002;923;1022;-83
2022/02/08 18:15:40;;;;;;;;;;;;;;;7.60;41.52;101796.66;145002;919;1022;-83
2022/02/08 18:18:25;;;;;;;;;;;;;;;7.55;41.67;101810.09;145002;922;1018;-84
2022/02/08 18:20:56;;;;;;;;;;;;;;;7.60;41.39;101798.31;145002;919;1019;-81
2022/02/08 19:07:35;;;;;;;;;;;;;;;7.55;42.55;101891.09;145002;918;1023;-83
2022/02/08 19:19:16;;;;;;;;;;;;;;;;;;;;;
2022/02/08 19:21:46;;;;;;;;;;;;;;;7.58;42.34;101930.03;145002;921;1021;-85
2022/02/08 19:24:18;;;;;;;;;;;;;;;7.59;42.40;101931.84;145002;924;1021;-83
2022/02/08 19:26:45;;;;;;;;;;;;;;;7.70;42.47;101929.00;145002;921;1020;-81
2022/02/08 19:29:14;;;;;;;;;;;;;;;7.54;41.62;101933.25;145001;925;1998;-83
2022/02/08 19:31:50;;;;;;;;;;;;;;;7.59;41.12;101941.28;145002;922;1016;-84
2022/02/08 19:34:16;;;;;;;;;;;;;;;7.63;41.75;101936.41;145002;927;1017;-83
2022/02/08 19:36:45;;;;;;;;;;;;;;;7.59;42.01;101931.84;145002;923;1021;-86
2022/02/08 19:39:12;;;;;;;;;;;;;;;7.77;42.28;101944.09;145002;928;1018;-84
2022/02/08 19:41:40;;;;;;;;;;;;;;;7.81;42.28;101946.06;145002;922;1016;-85
2022/02/08 19:44:10;;;;;;;;;;;;;;;7.73;43.22;101952.44;145002;927;1019;-83
2022/02/08 19:46:37;;;;;;;;;;;;;;;7.59;43.26;101955.09;145002;922;1019;-85
2022/02/08 19:49:05;;;;;;;;;;;;;;;7.75;43.51;101956.91;145002;926;1017;-88
2022/02/08 19:51:33;;;;;;;;;;;;;;;7.88;43.73;101975.78;145002;923;1019;-83
2022/02/08 19:54:03;;;;;;;;;;;;;;;7.77;43.31;101972.53;145002;926;1019;-84
2022/02/08 19:59:20;;;;;;;;;;;;;;;7.78;42.63;101989.84;145002;919;1019;-87
2022/02/08 20:01:51;;;;;;;;;;;;;;;7.77;42.62;101995.78;145002;918;1022;-85
2022/02/08 20:04:19;;;;;;;;;;;;;;;7.66;42.65;101997.72;145002;923;1021;-85
2022/02/08 20:06:46;;;;;;;;;;;;;;;7.77;42.83;102004.44;145002;919;1020;-84
2022/02/08 20:09:12;;;;;;;;;;;;;;;7.74;42.83;102003.34;145002;922;1018;-84
2022/02/08 20:11:38;;;;;;;;;;;;;;;7.80;42.07;102009.78;145002;914;1024;-84
2022/02/08 20:14:07;;;;;;;;;;;;;;;7.85;42.55;102016.94;145001;923;2002;-83
2022/02/08 20:16:36;;;;;;;;;;;;;;;7.63;41.60;102008.78;145002;920;1017;-85
2022/02/08 20:19:04;;;;;;;;;;;;;;;7.67;41.99;102014.09;145002;924;1017;-85
2022/02/08 20:21:32;;;;;;;;;;;;;;;7.75;41.88;102018.97;145002;921;1017;-82
2022/02/08 20:24:02;;;;;;;;;;;;;;;7.80;42.38;102025.31;145002;924;1019;-83
2022/02/08 20:26:45;;;;;;;;;;;;;;;7.76;42.19;102014.66;145002;921;1020;-83
2022/02/08 20:29:21;;;;;;;;;;;;;;;7.74;41.73;102005.94;145002;925;1021;-84
2022/02/08 20:31:48;;;;;;;;;;;;;;;7.65;40.20;102003.66;145002;920;1020;-86
2022/02/08 20:34:21;;;;;;;;;;;;;;;7.63;40.25;101997.50;145002;925;1019;-84
2022/02/08 20:36:51;;;;;;;;;;;;;;;7.52;39.32;101998.53;145002;921;1016;-83
2022/02/08 20:39:17;;;;;;;;;;;;;;;7.71;39.52;102000.56;145002;924;1018;-82